Manavgat, Turkey
Current Conditions -  °F | °C
As of 2:50 AM on Tuesday 23 Dec 2014 (Local Time) from LTAI Reporting Station
Clear Clear  
Wind Chill: 39°   Ceiling: Unl
Heat Index: 46°   Visibility: 6mi
Dew Point: 18°   Wind: 20mph
Humidity: 32%   Direction: 350°N
Pressure: 30.12"   Gusts: NA
Location:  36.79°N, 31.46°E
Report Text: LTAI 222350Z 35017KT CAVOK 08/M08 Q1020 NOSIG
Loading
Personal Weather Stations






























Interactive Weather Map New forecast layout! Learn more

10-Day Weather Forecast

Advertisements
Track Severe Weather on mobile